Csl Argosy — C6UZ9 — position and weather

sailwx.info

Track history (hours):
 
Tides and Currents Weather Stations Pressure Air Temp Water Temp Dewpoint Dewpoint Depression Visibility Wind Speed Wind Dir Waves Ship Positions

Csl Argosy

Last reported at 2017-Mar-11 22:07 UTC. Time now 2017-Mar-26 20:40 UTC.
Position N 37°40' W 031°01'.
Warning: this ship's position is 14 days out of date.

Length 244 m; draft 7.8 m.

Type: Cargo ship. MMSI: 308299000.

Date/timePositionNaut miles runAvg speedWind from/ knotsBaromVisibWave heightAir tempDewpointWater temp
2017-Mar-11 22:07N 37°40' W 031°01'15 9.1
2017-Mar-11 20:25N 37°36' W 030°43'30 9.1
2017-Mar-11 17:07N 37°28' W 030°06'5 8.6
2017-Mar-11 16:33N 37°26' W 030°01'8 8.4
2017-Mar-11 15:33N 37°24' W 029°51'8 8.0
2017-Mar-11 14:33N 37°21' W 029°41'8 7.9
2017-Mar-11 13:33N 37°20' W 029°31'8 8.0
2017-Mar-11 12:33N 37°17' W 029°22'8 8.0
2017-Mar-11 11:33N 37°15' W 029°12'8 8.3
2017-Mar-11 10:33N 37°13' W 029°02'8 8.6
2017-Mar-11 09:33N 37°11' W 028°52'8 8.2
2017-Mar-11 08:33N 37°09' W 028°42'9 8.3
2017-Mar-11 07:27N 37°07' W 028°30'8 8.6
2017-Mar-11 06:33N 37°04' W 028°21'9 8.3
2017-Mar-11 05:31N 37°02' W 028°11'9 8.6
2017-Mar-11 04:30N 36°59' W 028°00'8 8.5
2017-Mar-11 03:33N 36°57' W 027°51'8 8.0
2017-Mar-11 02:33N 36°55' W 027°41'8 7.9
2017-Mar-11 01:33N 36°53' W 027°32'26 7.5
2017-Mar-10 22:07N 36°46' W 027°00'5 7.5
2017-Mar-10 21:25N 36°44' W 026°54'7 7.8
2017-Mar-10 20:28N 36°42' W 026°45'18 7.8
2017-Mar-10 18:09N 36°37' W 026°23'5 7.7
2017-Mar-10 17:33N 36°36' W 026°18'8 7.8
2017-Mar-10 16:33N 36°34' W 026°09'8 8.0
2017-Mar-10 15:33N 36°32' W 025°59'8 8.1
2017-Mar-10 14:33N 36°30' W 025°49'8 8.0
2017-Mar-10 13:33N 36°28' W 025°40'8 7.6
2017-Mar-10 12:33N 36°26' W 025°30'8 7.7
2017-Mar-10 11:34N 36°24' W 025°21'7 7.4
2017-Mar-10 10:33N 36°22' W 025°12'7 7.4
2017-Mar-10 09:33N 36°21' W 025°03'7 7.3
2017-Mar-10 08:33N 36°20' W 024°54'7 7.5
2017-Mar-10 07:34N 36°19' W 024°45'8 7.8
2017-Mar-10 06:33N 36°19' W 024°35'8 7.8
2017-Mar-10 05:33N 36°19' W 024°26'8 7.7
2017-Mar-10 04:33N 36°19' W 024°16'8 7.9
2017-Mar-10 03:33N 36°19' W 024°06'8 8.4
2017-Mar-10 02:33N 36°18' W 023°56'9 8.6
2017-Mar-10 01:33N 36°18' W 023°45'11 8.5
2017-Mar-10 00:19N 36°18' W 023°32'71 9.1
2017-Mar-09 16:32N 36°17' W 022°04'423 9.6
2017-Mar-07 20:30N 36°06' W 013°20'10 9.4
2017-Mar-07 19:28N 36°06' W 013°08'367 9.0
2017-Mar-06 02:33N 35°59' W 005°34'7 7.2
2017-Mar-06 01:33N 36°01' W 005°26'7 6.5
2017-Mar-06 00:33N 36°07' W 005°24'0 0.2
2017-Mar-05 23:31N 36°07' W 005°24'0 0.0
2017-Mar-05 22:31N 36°07' W 005°24'0 0.2
2017-Mar-05 21:33N 36°07' W 005°24'0 0.1
2017-Mar-05 20:33N 36°07' W 005°24'0 0.1
2017-Mar-05 19:33N 36°07' W 005°24'0 0.0
2017-Mar-05 18:33N 36°07' W 005°24'0 0.1
2017-Mar-05 17:33N 36°07' W 005°24'0 0.0
2017-Mar-05 16:33N 36°07' W 005°24'0 0.1
2017-Mar-05 15:33N 36°07' W 005°24'0 0.0
2017-Mar-05 14:33N 36°07' W 005°24'0 0.0
2017-Mar-05 13:33N 36°07' W 005°24'0 0.0
2017-Mar-05 12:33N 36°07' W 005°24'0 0.0
2017-Mar-05 11:33N 36°07' W 005°24'0 0.0
2017-Mar-05 10:33N 36°07' W 005°24'0 0.1
2017-Mar-05 09:33N 36°07' W 005°24'0 0.1
2017-Mar-05 08:33N 36°07' W 005°24'0 0.0
2017-Mar-05 07:33N 36°07' W 005°24'0 0.0
2017-Mar-05 06:33N 36°07' W 005°24'0 0.0
2017-Mar-05 05:33N 36°07' W 005°24'0 0.2
2017-Mar-05 04:33N 36°07' W 005°24'0 0.1
2017-Mar-05 03:33N 36°07' W 005°24'0 0.0
2017-Mar-05 02:33N 36°07' W 005°24'1 1.2
2017-Mar-05 01:33N 36°06' W 005°23'6 5.7
2017-Mar-05 00:33N 36°03' W 005°17'8 7.8
2017-Mar-04 23:33N 36°04' W 005°07'8 7.7
2017-Mar-04 22:33N 36°05' W 004°58'6 6.3
2017-Mar-04 21:33N 36°06' W 004°50'203 6.7
2017-Mar-03 15:27N 37°20' W 000°55'1010.6
2017-Mar-03 14:33N 37°26' W 000°45'1110.6
2017-Mar-03 13:30N 37°33' W 000°35'1010.0
2017-Mar-03 12:30N 37°41' W 000°27'2310.2
2017-Mar-03 10:15N 38°01' W 000°12'36 9.7
2017-Mar-03 06:31N 38°31' E 000°14'39 9.7
2017-Mar-03 02:30N 39°06' E 000°36'1010.0
2017-Mar-03 01:33N 39°15' E 000°41'1210.0
2017-Mar-03 00:20N 39°26' E 000°47'2910.2
2017-Mar-02 21:27N 39°54' E 000°57'910.2
2017-Mar-02 20:33N 40°03' E 000°59'1010.0
2017-Mar-02 19:33N 40°13' E 000°60'1010.4
2017-Mar-02 18:33N 40°23' E 001°01'1110.3
2017-Mar-02 17:32N 40°34' E 001°03'1010.5
2017-Mar-02 16:33N 40°44' E 001°06'1410.4
2017-Mar-02 15:12N 40°58' E 001°10'710.2
2017-Mar-02 14:33N 41°04' E 001°12'2 1.7
2017-Mar-02 13:31N 41°05' E 001°14'0 0.0
2017-Mar-01 23:31N 41°05' E 001°14'0 0.0
2017-Mar-01 22:13N 41°05' E 001°14'  
Track history (hours):
 
Tides and Currents Weather Stations Pressure Air Temp Water Temp Dewpoint Dewpoint Depression Visibility Wind Speed Wind Dir Waves Ship Positions

Csl Argosy

Last reported at 2017-Mar-11 22:07 UTC. Time now 2017-Mar-26 20:40 UTC.
Position N 37°40' W 031°01'.
Warning: this ship's position is 14 days out of date.

Length 244 m; draft 7.8 m.

Type: Cargo ship. MMSI: 308299000.

Date/timePositionNaut miles runAvg speedWind from/ knotsBaromVisibWave heightAir tempDewpointWater temp
2017-Mar-11 22:07N 37°40' W 031°01'15 9.1
2017-Mar-11 20:25N 37°36' W 030°43'30 9.1
2017-Mar-11 17:07N 37°28' W 030°06'5 8.6
2017-Mar-11 16:33N 37°26' W 030°01'8 8.4
2017-Mar-11 15:33N 37°24' W 029°51'8 8.0
2017-Mar-11 14:33N 37°21' W 029°41'8 7.9
2017-Mar-11 13:33N 37°20' W 029°31'8 8.0
2017-Mar-11 12:33N 37°17' W 029°22'8 8.0
2017-Mar-11 11:33N 37°15' W 029°12'8 8.3
2017-Mar-11 10:33N 37°13' W 029°02'8 8.6
2017-Mar-11 09:33N 37°11' W 028°52'8 8.2
2017-Mar-11 08:33N 37°09' W 028°42'9 8.3
2017-Mar-11 07:27N 37°07' W 028°30'8 8.6
2017-Mar-11 06:33N 37°04' W 028°21'9 8.3
2017-Mar-11 05:31N 37°02' W 028°11'9 8.6
2017-Mar-11 04:30N 36°59' W 028°00'8 8.5
2017-Mar-11 03:33N 36°57' W 027°51'8 8.0
2017-Mar-11 02:33N 36°55' W 027°41'8 7.9
2017-Mar-11 01:33N 36°53' W 027°32'26 7.5
2017-Mar-10 22:07N 36°46' W 027°00'5 7.5
2017-Mar-10 21:25N 36°44' W 026°54'7 7.8
2017-Mar-10 20:28N 36°42' W 026°45'18 7.8
2017-Mar-10 18:09N 36°37' W 026°23'5 7.7
2017-Mar-10 17:33N 36°36' W 026°18'8 7.8
2017-Mar-10 16:33N 36°34' W 026°09'8 8.0
2017-Mar-10 15:33N 36°32' W 025°59'8 8.1
2017-Mar-10 14:33N 36°30' W 025°49'8 8.0
2017-Mar-10 13:33N 36°28' W 025°40'8 7.6
2017-Mar-10 12:33N 36°26' W 025°30'8 7.7
2017-Mar-10 11:34N 36°24' W 025°21'7 7.4
2017-Mar-10 10:33N 36°22' W 025°12'7 7.4
2017-Mar-10 09:33N 36°21' W 025°03'7 7.3
2017-Mar-10 08:33N 36°20' W 024°54'7 7.5
2017-Mar-10 07:34N 36°19' W 024°45'8 7.8
2017-Mar-10 06:33N 36°19' W 024°35'8 7.8
2017-Mar-10 05:33N 36°19' W 024°26'8 7.7
2017-Mar-10 04:33N 36°19' W 024°16'8 7.9
2017-Mar-10 03:33N 36°19' W 024°06'8 8.4
2017-Mar-10 02:33N 36°18' W 023°56'9 8.6
2017-Mar-10 01:33N 36°18' W 023°45'11 8.5
2017-Mar-10 00:19N 36°18' W 023°32'71 9.1
2017-Mar-09 16:32N 36°17' W 022°04'423 9.6
2017-Mar-07 20:30N 36°06' W 013°20'10 9.4
2017-Mar-07 19:28N 36°06' W 013°08'367 9.0
2017-Mar-06 02:33N 35°59' W 005°34'7 7.2
2017-Mar-06 01:33N 36°01' W 005°26'7 6.5
2017-Mar-06 00:33N 36°07' W 005°24'0 0.2
2017-Mar-05 23:31N 36°07' W 005°24'0 0.0
2017-Mar-05 22:31N 36°07' W 005°24'0 0.2
2017-Mar-05 21:33N 36°07' W 005°24'0 0.1
2017-Mar-05 20:33N 36°07' W 005°24'0 0.1
2017-Mar-05 19:33N 36°07' W 005°24'0 0.0
2017-Mar-05 18:33N 36°07' W 005°24'0 0.1
2017-Mar-05 17:33N 36°07' W 005°24'0 0.0
2017-Mar-05 16:33N 36°07' W 005°24'0 0.1
2017-Mar-05 15:33N 36°07' W 005°24'0 0.0
2017-Mar-05 14:33N 36°07' W 005°24'0 0.0
2017-Mar-05 13:33N 36°07' W 005°24'0 0.0
2017-Mar-05 12:33N 36°07' W 005°24'0 0.0
2017-Mar-05 11:33N 36°07' W 005°24'0 0.0
2017-Mar-05 10:33N 36°07' W 005°24'0 0.1
2017-Mar-05 09:33N 36°07' W 005°24'0 0.1
2017-Mar-05 08:33N 36°07' W 005°24'0 0.0
2017-Mar-05 07:33N 36°07' W 005°24'0 0.0
2017-Mar-05 06:33N 36°07' W 005°24'0 0.0
2017-Mar-05 05:33N 36°07' W 005°24'0 0.2
2017-Mar-05 04:33N 36°07' W 005°24'0 0.1
2017-Mar-05 03:33N 36°07' W 005°24'0 0.0
2017-Mar-05 02:33N 36°07' W 005°24'1 1.2
2017-Mar-05 01:33N 36°06' W 005°23'6 5.7
2017-Mar-05 00:33N 36°03' W 005°17'8 7.8
2017-Mar-04 23:33N 36°04' W 005°07'8 7.7
2017-Mar-04 22:33N 36°05' W 004°58'6 6.3
2017-Mar-04 21:33N 36°06' W 004°50'203 6.7
2017-Mar-03 15:27N 37°20' W 000°55'1010.6
2017-Mar-03 14:33N 37°26' W 000°45'1110.6
2017-Mar-03 13:30N 37°33' W 000°35'1010.0
2017-Mar-03 12:30N 37°41' W 000°27'2310.2
2017-Mar-03 10:15N 38°01' W 000°12'36 9.7
2017-Mar-03 06:31N 38°31' E 000°14'39 9.7
2017-Mar-03 02:30N 39°06' E 000°36'1010.0
2017-Mar-03 01:33N 39°15' E 000°41'1210.0
2017-Mar-03 00:20N 39°26' E 000°47'2910.2
2017-Mar-02 21:27N 39°54' E 000°57'910.2
2017-Mar-02 20:33N 40°03' E 000°59'1010.0
2017-Mar-02 19:33N 40°13' E 000°60'1010.4
2017-Mar-02 18:33N 40°23' E 001°01'1110.3
2017-Mar-02 17:32N 40°34' E 001°03'1010.5
2017-Mar-02 16:33N 40°44' E 001°06'1410.4
2017-Mar-02 15:12N 40°58' E 001°10'710.2
2017-Mar-02 14:33N 41°04' E 001°12'2 1.7
2017-Mar-02 13:31N 41°05' E 001°14'0 0.0
2017-Mar-01 23:31N 41°05' E 001°14'0 0.0
2017-Mar-01 22:13N 41°05' E 001°14'  

Dump ship's entire track history